Time;durP1;ratioP1;P1;durP2;ratioP2;P2;SDS_P1;SDS_P2;PMS_P1;PMS_P2;Temp;Humidity;BMP_temperature;BMP_pressure;BME280_temperature;BME280_humidity;BME280_pressure;Samples;Min_cycle;Max_cycle;Signal;HPM_P1;HPM_P2
2023/06/24 09:15:15;;;;;;;5.32;3.47;;;;;;;25.08;42.89;97485.25;2084344;28;20800;-59
2023/06/24 09:17:30;;;;;;;6.78;3.35;;;;;;;25.34;41.41;97484.69;2086437;28;20579;-58
2023/06/24 09:21:52;;;;;;;6.18;3.47;;;;;;;24.82;44.09;97474.25;2093519;27;20575;-58
2023/06/24 09:24:03;;;;;;;6.32;3.33;;;;;;;25.45;43.47;97473.06;2084044;28;20554;-59
2023/06/24 09:28:48;;;;;;;4.28;3.10;;;;;;;25.67;42.60;97456.66;2110945;27;20551;-58
2023/06/24 09:31:09;;;;;;;3.90;3.00;;;;;;;26.00;41.67;97443.75;2083992;28;20538;-58
2023/06/24 09:33:39;;;;;;;4.82;2.60;;;;;;;26.18;41.47;97465.28;2090943;27;20991;-58
2023/06/24 09:34:41;;;;;;;6.97;2.90;;;;;;;25.89;41.36;97455.50;2088394;28;20221;-59
2023/06/24 09:36:56;;;;;;;4.45;2.85;;;;;;;26.35;40.78;97457.47;2083186;28;20558;-58
2023/06/24 09:38:01;;;;;;;4.93;3.13;;;;;;;26.63;40.35;97462.81;2079227;28;20668;-58
2023/06/24 09:39:07;;;;;;;4.95;2.90;;;;;;;26.14;39.63;97457.69;2070727;28;20790;-59
2023/06/24 09:42:01;;;;;;;6.38;3.10;;;;;;;24.77;42.13;97463.97;2089733;28;20568;-58
2023/06/24 09:43:03;;;;;;;4.72;3.38;;;;;;;24.74;42.18;97457.09;2087496;28;20192;-58
2023/06/24 09:44:08;;;;;;;5.30;3.40;;;;;;;24.81;41.58;97453.88;2085734;28;20652;-58
2023/06/24 09:45:10;;;;;;;5.38;3.40;;;;;;;25.19;42.02;97455.72;2084647;28;20246;-58
2023/06/24 09:46:12;;;;;;;4.30;2.78;;;;;;;25.75;41.06;97456.81;2083183;28;20197;-59
2023/06/24 09:47:14;;;;;;;6.40;3.33;;;;;;;25.15;41.48;97458.81;2082528;28;20203;-58
2023/06/24 09:48:15;;;;;;;7.85;3.90;;;;;;;24.82;41.35;97447.53;2083554;28;20224;-58
2023/06/24 09:49:17;;;;;;;6.35;2.83;;;;;;;24.20;42.59;97450.31;2084354;28;20204;-59
2023/06/24 09:51:44;;;;;;;5.88;3.78;;;;;;;23.23;43.99;97460.25;2085538;28;20578;-58
2023/06/24 09:52:47;;;;;;;6.15;3.30;;;;;;;23.98;42.89;97460.19;2080004;28;20676;-58
2023/06/24 09:53:54;;;;;;;6.32;3.47;;;;;;;24.26;42.57;97450.63;2071667;28;20235;-58
2023/06/24 09:54:58;;;;;;;4.70;3.15;;;;;;;24.56;42.53;97451.53;2069843;28;20194;-58
2023/06/24 09:56:01;;;;;;;7.00;3.63;;;;;;;25.14;41.95;97446.44;2073414;28;20205;-58
2023/06/24 09:57:05;;;;;;;7.13;3.72;;;;;;;25.32;41.15;97443.88;2072330;28;20259;-58
2023/06/24 09:58:07;;;;;;;5.03;3.05;;;;;;;25.32;40.77;97441.22;2070293;28;20237;-58
2023/06/24 09:59:10;;;;;;;6.18;3.38;;;;;;;25.78;40.51;97444.97;2069899;28;20589;-58
2023/06/24 10:00:17;;;;;;;5.15;3.30;;;;;;;25.57;41.09;97445.16;2070566;28;20219;-58
2023/06/24 10:01:19;;;;;;;6.40;3.20;;;;;;;25.63;40.05;97443.75;2072109;28;20733;-59
2023/06/24 10:02:21;;;;;;;4.88;3.10;;;;;;;25.63;39.66;97447.25;2073828;28;20248;-58
2023/06/24 10:03:23;;;;;;;6.10;3.00;;;;;;;25.79;40.31;97446.66;2074471;28;20304;-58
2023/06/24 10:04:27;;;;;;;5.47;2.80;;;;;;;26.50;38.85;97441.72;2074802;28;20348;-59
2023/06/24 10:05:29;;;;;;;5.95;2.60;;;;;;;26.40;38.84;97448.00;2073106;28;20202;-59
2023/06/24 10:06:32;;;;;;;3.17;2.15;;;;;;;26.45;38.14;97442.19;2073833;28;20277;-59
2023/06/24 10:07:36;;;;;;;15.30;3.17;;;;;;;26.06;37.69;97445.88;2072922;28;20197;-59
2023/06/24 10:08:38;;;;;;;3.70;2.88;;;;;;;26.11;38.63;97437.44;2070883;28;20312;-59
2023/06/24 10:09:39;;;;;;;5.18;3.00;;;;;;;26.16;38.62;97435.16;2072142;28;20698;-60
2023/06/24 10:10:41;;;;;;;5.85;2.97;;;;;;;26.90;38.79;97437.84;2072339;28;20224;-59
2023/06/24 10:11:46;;;;;;;4.55;3.15;;;;;;;27.22;39.09;97436.44;2070705;28;20797;-59
2023/06/24 10:12:47;;;;;;;5.35;2.80;;;;;;;27.32;38.60;97439.88;2071770;28;20228;-60
2023/06/24 10:13:49;;;;;;;4.35;3.13;;;;;;;27.72;38.47;97437.72;2073024;28;20209;-59
2023/06/24 10:14:51;;;;;;;4.90;2.95;;;;;;;27.81;38.31;97438.59;2072370;28;20190;-59
2023/06/24 10:15:53;;;;;;;3.78;2.30;;;;;;;27.92;38.12;97448.22;2075520;28;20276;-60
2023/06/24 10:17:04;;;;;;;5.28;2.90;;;;;;;28.40;37.57;97443.28;2075317;28;20230;-60
2023/06/24 10:18:34;;;;;;;4.90;2.92;;;;;;;28.02;37.23;97432.84;2071624;28;20340;-60
2023/06/24 10:19:40;;;;;;;10.35;2.80;;;;;;;27.97;37.65;97436.03;2073398;28;20204;-60
2023/06/24 10:20:42;;;;;;;6.10;3.10;;;;;;;28.33;36.84;97424.28;2069464;28;20205;-60
2023/06/24 10:21:44;;;;;;;5.30;3.13;;;;;;;27.48;37.97;97424.97;2070627;28;20267;-60
2023/06/24 10:22:46;;;;;;;4.00;2.80;;;;;;;27.74;37.42;97430.31;2071667;28;20672;-60
2023/06/24 10:23:47;;;;;;;5.28;3.10;;;;;;;28.02;37.46;97425.66;2071934;28;20222;-60
2023/06/24 10:24:51;;;;;;;4.82;2.95;;;;;;;28.02;37.52;97419.41;2074302;28;20209;-60
2023/06/24 10:25:53;;;;;;;9.32;3.40;;;;;;;28.12;37.04;97420.16;2068166;28;20205;-60
2023/06/24 10:26:55;;;;;;;5.57;3.08;;;;;;;27.92;37.50;97419.56;2069455;28;20786;-60
2023/06/24 10:27:56;;;;;;;4.67;3.20;;;;;;;28.26;37.03;97418.72;2070507;28;20202;-60
2023/06/24 10:29:07;;;;;;;3.93;2.87;;;;;;;28.04;38.03;97422.81;2070378;28;20442;-60
2023/06/24 10:30:17;;;;;;;4.60;2.72;;;;;;;28.28;37.65;97423.94;2068168;28;20427;-60
2023/06/24 10:31:18;;;;;;;4.43;2.83;;;;;;;28.40;37.37;97419.94;2071113;28;20220;-60
2023/06/24 10:32:22;;;;;;;4.28;2.55;;;;;;;28.22;37.48;97417.38;2072646;28;20418;-60
2023/06/24 10:33:24;;;;;;;4.57;3.20;;;;;;;28.34;36.77;97415.22;2076689;28;20312;-60
2023/06/24 10:34:33;;;;;;;7.22;3.42;;;;;;;27.59;37.27;97410.44;2074865;28;20484;-60
2023/06/24 10:35:43;;;;;;;5.07;3.03;;;;;;;27.30;37.26;97411.53;2071395;28;20208;-60
2023/06/24 10:37:13;;;;;;;4.20;2.70;;;;;;;27.61;37.75;97413.84;2071274;28;20700;-60
2023/06/24 10:38:14;;;;;;;6.70;2.95;;;;;;;27.82;38.35;97408.94;2070888;28;20217;-60
2023/06/24 10:39:57;;;;;;;3.83;2.60;;;;;;;27.89;36.71;97410.97;2071064;28;20652;-60
2023/06/24 10:40:59;;;;;;;5.40;2.50;;;;;;;28.24;35.66;97410.00;2070436;28;20244;-60
2023/06/24 10:42:23;;;;;;;3.80;2.50;;;;;;;28.56;34.67;97404.91;2066394;28;20880;-60
2023/06/24 10:43:26;;;;;;;3.75;2.53;;;;;;;27.76;34.76;97404.19;2071487;28;20858;-60
2023/06/24 10:44:27;;;;;;;5.27;3.20;;;;;;;28.23;35.61;97402.13;2072032;28;20201;-60
2023/06/24 10:45:29;;;;;;;8.73;2.73;;;;;;;28.50;35.80;97404.53;2070125;28;20443;-60
2023/06/24 10:46:32;;;;;;;3.57;2.60;;;;;;;28.77;34.77;97393.72;2072152;28;20427;-60
2023/06/24 10:47:35;;;;;;;3.10;2.20;;;;;;;29.04;33.96;97397.94;2072672;28;20965;-60
2023/06/24 10:48:37;;;;;;;6.33;2.63;;;;;;;28.49;34.55;97394.81;2071181;28;21016;-60
2023/06/24 10:49:38;;;;;;;3.90;2.50;;;;;;;28.68;34.60;97387.47;2072980;28;20435;-60
2023/06/24 10:50:40;;;;;;;3.70;2.23;;;;;;;28.50;35.60;97387.59;2071806;28;20486;-60
2023/06/24 10:51:42;;;;;;;4.10;2.77;;;;;;;28.84;35.08;97390.19;2070040;28;20539;-60
2023/06/24 10:52:46;;;;;;;6.63;3.43;;;;;;;28.92;34.21;97388.53;2068993;28;20917;-60
2023/06/24 10:53:47;;;;;;;3.00;2.03;;;;;;;28.01;35.15;97383.69;2068800;28;20982;-60
2023/06/24 10:54:50;;;;;;;5.38;2.78;;;;;;;27.16;38.02;97388.81;2071154;28;20459;-60
2023/06/24 10:55:52;;;;;;;11.00;3.08;;;;;;;27.32;37.73;97393.47;2070182;28;20364;-60
2023/06/24 10:56:53;;;;;;;4.50;2.97;;;;;;;26.55;36.86;97384.06;2073773;28;20205;-60
2023/06/24 10:58:07;;;;;;;4.28;2.53;;;;;;;26.98;37.33;97380.81;2074366;28;21029;-60
2023/06/24 10:59:12;;;;;;;3.53;2.60;;;;;;;26.42;36.72;97386.25;2073214;28;20202;-59
2023/06/24 11:00:15;;;;;;;4.10;2.58;;;;;;;26.73;36.87;97388.63;2072117;28;20288;-59
2023/06/24 11:01:16;;;;;;;6.15;3.33;;;;;;;26.64;37.51;97378.78;2071652;28;20252;-60
2023/06/24 11:02:20;;;;;;;8.77;2.78;;;;;;;27.91;36.60;97384.81;2069154;28;20205;-60
2023/06/24 11:03:22;;;;;;;3.90;2.63;;;;;;;28.42;36.32;97387.56;2066317;28;20217;-60
2023/06/24 11:04:24;;;;;;;5.45;2.58;;;;;;;29.00;35.29;97384.00;2061395;28;20209;-59
2023/06/24 11:05:25;;;;;;;5.00;2.58;;;;;;;28.99;34.75;97390.38;2066943;28;20197;-60
2023/06/24 11:06:26;;;;;;;3.80;2.25;;;;;;;29.21;34.82;97387.19;2063126;28;20309;-60
2023/06/24 11:07:34;;;;;;;2.42;1.90;;;;;;;29.64;34.48;97380.59;2065943;28;20199;-60
2023/06/24 11:08:43;;;;;;;4.35;2.75;;;;;;;29.63;34.51;97384.28;2064634;28;20739;-60
2023/06/24 11:09:53;;;;;;;3.95;2.80;;;;;;;30.02;33.88;97377.34;2063992;28;20199;-60
2023/06/24 11:10:54;;;;;;;4.70;3.00;;;;;;;29.78;34.24;97378.22;2063285;28;20198;-60
2023/06/24 11:11:56;;;;;;;3.57;2.57;;;;;;;29.93;33.99;97379.22;2062311;28;20211;-60
2023/06/24 11:13:05;;;;;;;4.57;2.60;;;;;;;30.22;34.28;97369.69;2066761;28;20424;-60
2023/06/24 11:14:07;;;;;;;6.43;3.17;;;;;;;30.40;34.66;97372.09;2065245;28;20205;-60
2023/06/24 11:15:13;;;;;;;7.23;3.20;;;;;;;29.79;35.16;97372.66;2065126;28;20465;-60
2023/06/24 11:16:19;;;;;;;4.97;2.90;;;;;;;29.87;34.95;97376.34;2065526;28;20784;-60
2023/06/24 11:17:21;;;;;;;3.80;2.50;;;;;;;29.73;35.16;97362.59;2066036;28;20424;-60
2023/06/24 11:18:22;;;;;;;4.43;2.87;;;;;;;29.63;35.13;97362.78;2065812;28;20456;-60
2023/06/24 11:19:24;;;;;;;5.10;2.53;;;;;;;29.59;35.50;97361.44;2065340;28;20800;-60
2023/06/24 11:20:25;;;;;;;3.90;2.40;;;;;;;29.60;35.72;97357.75;2065351;28;20560;-60
2023/06/24 11:21:33;;;;;;;4.50;3.17;;;;;;;29.58;35.26;97361.63;2065672;28;20577;-60
2023/06/24 11:22:34;;;;;;;3.87;2.60;;;;;;;29.87;34.57;97363.72;2066021;28;20432;-60
2023/06/24 11:23:36;;;;;;;3.47;2.20;;;;;;;30.37;34.83;97361.69;2066581;28;21058;-60
2023/06/24 11:24:39;;;;;;;4.27;2.90;;;;;;;30.20;34.24;97360.91;2069441;28;20420;-60
2023/06/24 11:25:42;;;;;;;4.50;2.70;;;;;;;30.21;33.56;97369.84;2067525;28;20598;-60
2023/06/24 11:26:45;;;;;;;4.27;3.13;;;;;;;29.35;35.11;97365.03;2067944;28;20438;-60
2023/06/24 11:27:47;;;;;;;3.20;2.50;;;;;;;29.28;33.80;97362.19;2067750;28;20476;-60
2023/06/24 11:28:49;;;;;;;3.73;2.80;;;;;;;29.76;33.41;97364.09;2067988;28;20431;-60
2023/06/24 11:29:52;;;;;;;4.73;2.53;;;;;;;30.25;31.83;97353.16;2068798;28;20424;-60
2023/06/24 11:30:54;;;;;;;4.80;2.17;;;;;;;30.64;31.55;97362.22;2066681;28;20439;-60
2023/06/24 11:31:55;;;;;;;2.90;2.10;;;;;;;29.35;33.14;97359.66;2065980;28;20460;-60
2023/06/24 11:32:57;;;;;;;6.77;2.80;;;;;;;29.02;33.42;97348.88;2067020;28;20475;-60
2023/06/24 11:33:58;;;;;;;4.63;2.83;;;;;;;28.04;34.21;97366.47;2068031;28;21172;-60
2023/06/24 11:35:00;;;;;;;4.07;2.63;;;;;;;27.81;34.73;97361.63;2067466;28;20449;-60
2023/06/24 11:36:09;;;;;;;4.57;2.83;;;;;;;27.18;35.42;97365.41;2066675;28;20201;-60
2023/06/24 11:37:11;;;;;;;5.63;2.90;;;;;;;26.73;36.04;97343.09;2064724;28;20776;-59
2023/06/24 11:38:13;;;;;;;7.28;3.05;;;;;;;27.27;35.75;97364.44;2064674;28;20456;-60
2023/06/24 11:39:22;;;;;;;4.05;2.60;;;;;;;28.46;34.72;97349.47;2064988;28;20289;-60
2023/06/24 11:40:24;;;;;;;4.28;2.72;;;;;;;29.22;33.55;97345.88;2067809;28;20198;-60
2023/06/24 11:41:27;;;;;;;4.53;2.78;;;;;;;29.90;33.59;97357.19;2067785;28;20202;-60
2023/06/24 11:42:29;;;;;;;4.95;2.60;;;;;;;29.80;32.50;97352.81;2065443;28;20198;-60
2023/06/24 11:43:30;;;;;;;5.47;2.97;;;;;;;28.80;33.14;97350.41;2064762;28;20249;-60
2023/06/24 11:44:32;;;;;;;4.17;2.77;;;;;;;27.98;35.69;97357.16;2065808;28;20922;-60
2023/06/24 11:45:34;;;;;;;3.73;3.07;;;;;;;28.02;35.41;97346.97;2068236;28;20514;-62
2023/06/24 11:46:37;;;;;;;7.13;3.40;;;;;;;28.85;34.69;97350.75;2065628;28;20436;-61
2023/06/24 11:47:39;;;;;;;4.57;3.15;;;;;;;29.14;34.29;97336.78;2066339;28;20492;-60
2023/06/24 11:48:41;;;;;;;4.40;2.67;;;;;;;29.36;33.56;97329.06;2066229;28;20217;-60
2023/06/24 11:49:55;;;;;;;4.97;3.20;;;;;;;28.95;33.39;97342.50;2067125;28;20463;-60
2023/06/24 11:50:56;;;;;;;4.07;2.38;;;;;;;29.02;33.55;97340.81;2065427;28;20422;-60
2023/06/24 11:52:00;;;;;;;4.50;3.20;;;;;;;28.39;33.79;97335.03;2064917;28;20202;-60
2023/06/24 11:53:02;;;;;;;4.53;2.73;;;;;;;28.97;33.63;97337.81;2065700;28;20515;-60
2023/06/24 11:54:05;;;;;;;2.90;2.00;;;;;;;29.92;32.03;97336.31;2065713;28;20428;-60
2023/06/24 11:55:18;;;;;;;3.90;2.30;;;;;;;29.92;32.82;97339.00;2064276;28;20915;-60
2023/06/24 11:56:33;;;;;;;4.50;2.50;;;;;;;28.24;34.11;97328.59;2066697;28;20428;-60
2023/06/24 11:57:53;;;;;;;3.90;2.87;;;;;;;28.41;34.33;97333.00;2066812;28;20422;-60
2023/06/24 11:58:55;;;;;;;4.57;2.53;;;;;;;28.94;34.12;97328.22;2065471;28;20436;-60
2023/06/24 11:59:56;;;;;;;4.60;2.70;;;;;;;29.53;32.88;97329.03;2065544;28;20729;-60
2023/06/24 12:00:58;;;;;;;11.93;2.90;;;;;;;29.74;33.24;97326.59;2065968;28;20465;-60
2023/06/24 12:02:03;;;;;;;9.65;3.05;;;;;;;29.49;33.54;97318.59;2065254;28;20326;-60
2023/06/24 12:03:06;;;;;;;5.67;2.30;;;;;;;29.97;33.39;97317.78;2064520;28;20200;-60
2023/06/24 12:04:13;;;;;;;7.10;2.37;;;;;;;29.94;33.19;97320.81;2065339;28;20435;-60
2023/06/24 12:05:29;;;;;;;5.10;2.40;;;;;;;30.00;32.67;97314.75;2066139;28;20436;-60
2023/06/24 12:06:31;;;;;;;37.80;21.50;;;;;;;30.55;32.88;97317.47;2066840;28;20481;-62
2023/06/24 12:07:32;;;;;;;16.20;11.10;;;;;;;30.53;31.42;97323.06;2066879;28;20427;-61
2023/06/24 12:08:34;;;;;;;36.37;21.07;;;;;;;30.43;31.89;97314.34;2064618;28;20552;-61
2023/06/24 12:09:51;;;;;;;5.97;4.27;;;;;;;30.78;32.34;97312.94;2064078;28;20423;-61
2023/06/24 12:10:53;;;;;;;4.70;2.57;;;;;;;31.16;31.99;97320.22;2068975;28;20455;-59
2023/06/24 12:11:54;;;;;;;3.27;2.43;;;;;;;31.18;31.72;97317.34;2067724;28;20443;-62
2023/06/24 12:12:57;;;;;;;9.03;3.03;;;;;;;31.02;32.01;97316.44;2066727;28;20502;-61
2023/06/24 12:13:58;;;;;;;3.10;2.50;;;;;;;31.43;32.07;97316.06;2066541;28;20435;-61
2023/06/24 12:15:00;;;;;;;3.70;2.70;;;;;;;31.66;31.81;97320.56;2066411;28;20485;-60
2023/06/24 12:16:01;;;;;;;3.37;2.60;;;;;;;31.51;31.84;97314.31;2066608;28;20436;-60
2023/06/24 12:17:03;;;;;;;3.40;2.40;;;;;;;31.22;31.67;97316.81;2066990;28;20433;-60
2023/06/24 12:18:05;;;;;;;6.37;2.67;;;;;;;31.71;31.61;97304.66;2063649;28;20428;-60
2023/06/24 12:19:07;;;;;;;3.00;2.30;;;;;;;31.39;31.13;97295.06;2065115;28;20458;-60
2023/06/24 12:20:09;;;;;;;5.80;2.53;;;;;;;31.07;31.89;97308.69;2066439;28;20475;-60
2023/06/24 12:21:11;;;;;;;4.27;2.83;;;;;;;31.32;31.74;97300.34;2066913;28;20478;-59
2023/06/24 12:22:12;;;;;;;3.80;2.80;;;;;;;31.52;31.51;97306.03;2065485;28;20439;-59
2023/06/24 12:23:13;;;;;;;4.77;2.80;;;;;;;32.02;30.78;97306.31;2066221;28;20460;-59
2023/06/24 12:24:15;;;;;;;3.53;2.27;;;;;;;31.62;30.76;97300.38;2068793;28;20457;-59
2023/06/24 12:25:17;;;;;;;5.00;2.30;;;;;;;30.48;31.52;97301.19;2068365;28;20423;-60
2023/06/24 12:26:18;;;;;;;7.33;2.93;;;;;;;30.69;30.96;97300.56;2066140;28;20481;-60
2023/06/24 12:27:20;;;;;;;3.00;2.33;;;;;;;29.43;32.87;97300.47;2067436;28;20464;-59
2023/06/24 12:28:21;;;;;;;7.73;5.77;;;;;;;29.87;32.85;97298.31;2066790;28;20537;-59
2023/06/24 12:29:23;;;;;;;7.90;4.27;;;;;;;29.80;32.80;97296.31;2065477;28;20458;-59
2023/06/24 12:30:25;;;;;;;3.83;2.87;;;;;;;28.63;33.50;97285.03;2066978;28;20435;-59
2023/06/24 12:31:26;;;;;;;3.33;2.00;;;;;;;28.47;34.20;97304.66;2068346;28;20434;-59
2023/06/24 12:32:28;;;;;;;4.17;2.90;;;;;;;28.55;33.50;97285.03;2067899;28;20443;-60
2023/06/24 12:33:30;;;;;;;5.00;2.73;;;;;;;28.60;33.99;97296.94;2064525;28;20495;-59
2023/06/24 12:34:31;;;;;;;3.80;2.60;;;;;;;28.94;33.23;97287.91;2062574;28;20425;-60
2023/06/24 12:35:33;;;;;;;3.70;2.80;;;;;;;27.57;34.33;97292.63;2069727;28;20477;-60
2023/06/24 12:36:34;;;;;;;7.03;2.63;;;;;;;26.88;35.09;97293.34;2063762;28;20428;-59
2023/06/24 12:37:36;;;;;;;4.28;2.47;;;;;;;27.42;34.81;97292.38;2064930;28;20210;-60
2023/06/24 12:38:38;;;;;;;4.40;2.90;;;;;;;26.62;36.42;97290.56;2064396;28;20338;-59
2023/06/24 12:39:39;;;;;;;4.55;2.70;;;;;;;28.24;34.92;97280.28;2066047;28;20640;-59
2023/06/24 12:40:40;;;;;;;4.05;2.28;;;;;;;29.37;33.59;97289.53;2066000;28;20221;-59
2023/06/24 12:41:42;;;;;;;4.47;2.47;;;;;;;29.89;32.55;97288.22;2066063;28;20208;-59
2023/06/24 12:42:43;;;;;;;4.70;3.00;;;;;;;28.28;33.64;97287.84;2066429;28;20201;-59
2023/06/24 12:43:45;;;;;;;4.45;2.50;;;;;;;28.46;33.25;97279.66;2062005;28;20305;-59
2023/06/24 12:44:46;;;;;;;4.75;3.30;;;;;;;28.42;33.31;97272.09;2066163;28;20202;-59
2023/06/24 12:45:48;;;;;;;4.30;2.47;;;;;;;28.31;33.64;97281.31;2066081;28;20243;-59
2023/06/24 12:46:49;;;;;;;5.65;2.58;;;;;;;28.08;34.17;97278.41;2065576;28;20432;-60
2023/06/24 12:47:51;;;;;;;4.10;2.78;;;;;;;28.45;33.95;97277.97;2065550;28;20726;-59
2023/06/24 12:48:53;;;;;;;4.20;2.80;;;;;;;28.16;33.54;97278.41;2063446;28;20588;-59
2023/06/24 12:49:55;;;;;;;5.05;2.60;;;;;;;27.88;34.05;97275.13;2068199;28;20244;-59
2023/06/24 12:50:56;;;;;;;3.95;2.60;;;;;;;28.15;34.04;97279.41;2068370;28;20205;-60
2023/06/24 12:51:58;;;;;;;3.92;2.50;;;;;;;28.28;32.45;97273.59;2062245;28;20225;-59
2023/06/24 12:52:59;;;;;;;3.90;2.42;;;;;;;28.49;32.83;97271.28;2066546;28;20211;-59
2023/06/24 12:54:01;;;;;;;3.83;2.40;;;;;;;28.68;33.46;97271.97;2066130;28;20751;-59
2023/06/24 12:55:03;;;;;;;13.02;2.60;;;;;;;28.19;33.98;97268.19;2065658;28;20202;-59
2023/06/24 12:56:05;;;;;;;3.90;2.80;;;;;;;29.03;33.61;97264.56;2066035;28;20331;-59
2023/06/24 12:57:07;;;;;;;3.47;2.53;;;;;;;28.80;33.82;97262.56;2066832;28;20194;-59
2023/06/24 12:58:19;;;;;;;8.85;2.63;;;;;;;28.77;34.60;97268.28;2065806;28;20558;-59
2023/06/24 12:59:21;;;;;;;3.53;2.35;;;;;;;30.07;33.28;97266.44;2067406;28;20231;-59
2023/06/24 13:00:23;;;;;;;5.93;2.37;;;;;;;30.41;32.70;97267.88;2067712;28;20292;-59
2023/06/24 13:01:25;;;;;;;3.13;2.22;;;;;;;29.75;32.76;97262.84;2066361;28;20502;-60
2023/06/24 13:02:26;;;;;;;3.35;2.38;;;;;;;28.69;33.18;97254.84;2066160;28;20195;-59
2023/06/24 13:03:28;;;;;;;3.20;2.45;;;;;;;28.60;33.26;97259.34;2067997;28;20241;-60
2023/06/24 13:04:30;;;;;;;5.00;2.75;;;;;;;29.62;33.20;97260.72;2067647;28;20239;-60
2023/06/24 13:05:31;;;;;;;4.55;2.50;;;;;;;30.57;31.96;97264.25;2064749;28;20210;-59
2023/06/24 13:06:34;;;;;;;3.70;2.53;;;;;;;30.96;31.59;97268.66;2064327;28;20202;-60
2023/06/24 13:07:35;;;;;;;2.63;2.03;;;;;;;30.89;32.06;97259.59;2068271;28;20419;-60
2023/06/24 13:08:37;;;;;;;3.20;2.23;;;;;;;31.16;31.93;97262.75;2065108;28;20469;-60
2023/06/24 13:09:38;;;;;;;3.27;2.37;;;;;;;30.83;31.68;97261.19;2066163;28;20432;-60
2023/06/24 13:10:40;;;;;;;7.20;2.30;;;;;;;31.40;31.43;97259.81;2066242;28;20456;-60
2023/06/24 13:11:42;;;;;;;4.77;2.60;;;;;;;31.72;31.08;97257.75;2068233;28;20431;-60
2023/06/24 13:12:43;;;;;;;7.03;2.30;;;;;;;32.07;30.62;97259.81;2069312;28;20527;-60
2023/06/24 13:13:45;;;;;;;3.63;2.57;;;;;;;31.24;30.49;97258.09;2063055;28;20460;-60
2023/06/24 13:14:46;;;;;;;3.63;1.93;;;;;;;31.86;30.28;97252.53;2065265;28;20489;-60
2023/06/24 13:15:48;;;;;;;4.20;2.13;;;;;;;31.39;30.04;97254.59;2063720;28;20467;-60
2023/06/24 13:16:50;;;;;;;3.03;2.30;;;;;;;30.59;30.76;97257.69;2059709;28;20940;-60
2023/06/24 13:17:51;;;;;;;4.40;2.40;;;;;;;30.88;30.28;97255.22;2059487;28;20483;-60
2023/06/24 13:18:53;;;;;;;4.57;2.47;;;;;;;29.93;31.12;97249.19;2067190;28;20431;-60
2023/06/24 13:19:54;;;;;;;4.20;2.30;;;;;;;28.48;32.64;97255.31;2067506;28;20428;-60
2023/06/24 13:20:55;;;;;;;5.03;2.33;;;;;;;29.07;32.76;97254.31;2066081;28;20443;-59
2023/06/24 13:22:16;;;;;;;2.40;2.00;;;;;;;29.17;31.44;97257.66;2065277;28;20466;-59
2023/06/24 13:23:17;;;;;;;4.30;2.60;;;;;;;30.26;31.28;97252.50;2066214;28;20494;-60
2023/06/24 13:24:19;;;;;;;4.30;2.40;;;;;;;30.88;30.92;97258.78;2066945;28;20428;-60
2023/06/24 13:25:21;;;;;;;3.83;2.37;;;;;;;31.47;30.72;97256.34;2064772;28;20846;-60
2023/06/24 13:26:22;;;;;;;3.00;2.30;;;;;;;31.94;30.10;97252.41;2067701;28;20427;-60
2023/06/24 13:27:23;;;;;;;3.53;2.43;;;;;;;32.24;29.95;97246.97;2068156;28;20439;-60
2023/06/24 13:28:25;;;;;;;4.43;2.63;;;;;;;32.36;29.67;97252.69;2067772;28;20475;-60
2023/06/24 13:29:27;;;;;;;3.70;2.43;;;;;;;32.14;29.45;97246.38;2066856;28;20432;-60
2023/06/24 13:30:29;;;;;;;2.87;2.23;;;;;;;31.32;30.02;97242.88;2066593;28;20432;-60
2023/06/24 13:31:30;;;;;;;3.03;2.20;;;;;;;30.48;30.73;97251.88;2066079;28;20428;-60
2023/06/24 13:32:32;;;;;;;4.43;2.23;;;;;;;30.12;31.05;97254.09;2066715;28;20432;-60
2023/06/24 13:33:34;;;;;;;4.60;2.50;;;;;;;31.19;30.29;97254.31;2067165;28;20471;-60
2023/06/24 13:34:35;;;;;;;3.43;2.30;;;;;;;30.34;31.06;97248.91;2066791;28;20435;-60
2023/06/24 13:35:37;;;;;;;5.50;3.23;;;;;;;31.00;30.07;97245.69;2067491;28;21000;-60
2023/06/24 13:36:38;;;;;;;4.80;2.90;;;;;;;31.39;29.47;97255.41;2067526;28;20485;-60
2023/06/24 13:37:40;;;;;;;3.93;2.37;;;;;;;31.25;30.03;97254.41;2066477;28;20549;-60
2023/06/24 13:38:42;;;;;;;4.30;2.40;;;;;;;29.62;30.76;97247.25;2065507;28;20472;-60
2023/06/24 13:39:44;;;;;;;3.93;2.30;;;;;;;30.13;30.49;97247.72;2065175;28;20439;-63
2023/06/24 13:40:45;;;;;;;4.80;2.60;;;;;;;29.13;31.09;97240.19;2065938;28;20428;-63
2023/06/24 13:41:47;;;;;;;4.57;2.50;;;;;;;27.72;32.57;97246.41;2066307;28;20474;-62
2023/06/24 13:42:48;;;;;;;4.47;2.63;;;;;;;27.77;32.30;97252.13;2064231;28;20443;-62
2023/06/24 13:43:50;;;;;;;3.93;2.43;;;;;;;28.63;31.98;97250.09;2064639;28;20471;-62
2023/06/24 13:44:51;;;;;;;4.33;2.80;;;;;;;29.70;31.44;97246.38;2067593;28;20470;-62
2023/06/24 13:45:53;;;;;;;5.80;2.30;;;;;;;30.52;31.04;97254.03;2183228;22;20487;-60
2023/06/24 13:46:54;;;;;;;2.90;1.93;;;;;;;31.28;30.26;97245.09;2070103;28;20779;-60
2023/06/24 13:47:56;;;;;;;3.53;2.60;;;;;;;31.81;29.44;97249.53;2071084;28;20470;-60
2023/06/24 13:48:58;;;;;;;4.73;2.37;;;;;;;31.96;28.75;97244.13;2071768;28;20512;-60
2023/06/24 13:50:00;;;;;;;3.40;2.27;;;;;;;32.15;28.09;97234.56;2071807;28;20431;-60
2023/06/24 13:51:01;;;;;;;3.20;2.07;;;;;;;31.97;27.57;97240.38;2071956;28;20434;-60
2023/06/24 13:52:03;;;;;;;4.53;2.30;;;;;;;32.04;27.70;97234.03;2071770;28;20435;-60
2023/06/24 13:53:04;;;;;;;4.70;2.20;;;;;;;32.24;27.41;97244.25;2071560;28;20470;-60
2023/06/24 13:54:06;;;;;;;3.20;2.20;;;;;;;32.69;26.95;97239.47;2071001;28;20431;-60
2023/06/24 13:55:08;;;;;;;3.90;2.33;;;;;;;32.49;27.75;97241.16;2072032;28;20419;-60
2023/06/24 13:56:09;;;;;;;3.83;2.43;;;;;;;31.98;28.43;97237.50;2071726;28;20431;-60
2023/06/24 13:57:10;;;;;;;3.20;2.40;;;;;;;31.91;29.19;97239.31;2071986;28;20427;-60
2023/06/24 13:58:12;;;;;;;2.80;2.10;;;;;;;32.44;28.73;97244.44;2071230;28;20609;-61
2023/06/24 13:59:14;;;;;;;3.90;2.43;;;;;;;31.99;29.61;97235.66;2071565;28;20485;-60
2023/06/24 14:00:15;;;;;;;3.33;2.13;;;;;;;32.46;29.49;97234.28;2071870;28;20427;-60
2023/06/24 14:01:17;;;;;;;4.00;2.23;;;;;;;32.33;29.17;97239.53;2071941;28;20427;-60
2023/06/24 14:02:19;;;;;;;4.13;2.40;;;;;;;32.15;29.69;97240.81;2071890;28;20463;-60
2023/06/24 14:03:20;;;;;;;7.63;2.37;;;;;;;32.00;30.31;97242.69;2071262;28;20470;-60
2023/06/24 14:04:22;;;;;;;7.03;2.77;;;;;;;32.04;29.96;97241.31;2071656;28;20462;-60
2023/06/24 14:05:23;;;;;;;3.70;2.43;;;;;;;32.23;30.41;97237.19;2071978;28;20443;-59
2023/06/24 14:06:25;;;;;;;4.17;3.20;;;;;;;32.38;29.78;97227.16;2071917;28;20987;-59
2023/06/24 14:07:26;;;;;;;4.33;2.60;;;;;;;32.86;29.59;97233.81;2071571;28;20431;-59
2023/06/24 14:08:28;;;;;;;4.23;2.80;;;;;;;32.81;28.87;97237.13;2071238;28;21240;-59
2023/06/24 14:09:30;;;;;;;5.33;2.50;;;;;;;32.79;28.56;97232.94;2071722;28;20484;-60
2023/06/24 14:10:31;;;;;;;6.00;3.33;;;;;;;31.43;29.34;97227.03;2071593;28;20462;-59
2023/06/24 14:11:33;;;;;;;4.00;2.80;;;;;;;31.24;29.91;97220.34;2070683;28;20439;-60
2023/06/24 14:12:34;;;;;;;5.10;2.70;;;;;;;31.58;29.74;97224.34;2071724;28;20986;-59
2023/06/24 14:13:36;;;;;;;3.87;2.60;;;;;;;30.57;30.65;97215.78;2070661;28;20528;-59
2023/06/24 14:14:38;;;;;;;3.30;2.50;;;;;;;30.11;31.43;97220.13;2071275;28;20835;-59
2023/06/24 14:15:41;;;;;;;7.83;2.63;;;;;;;31.35;30.87;97226.28;2070643;28;20442;-60
2023/06/24 14:16:42;;;;;;;3.70;2.33;;;;;;;31.62;30.20;97218.53;2071654;28;20530;-60
2023/06/24 14:17:44;;;;;;;3.83;2.10;;;;;;;31.39;30.72;97222.22;2071420;28;20427;-60
2023/06/24 14:18:45;;;;;;;3.17;2.47;;;;;;;31.04;31.27;97220.03;2070991;28;20550;-60
2023/06/24 14:19:47;;;;;;;3.73;2.50;;;;;;;31.95;30.71;97216.28;2071692;28;20430;-60
2023/06/24 14:20:49;;;;;;;8.77;2.80;;;;;;;32.66;30.01;97222.81;2071460;28;20442;-60
2023/06/24 14:21:50;;;;;;;5.33;2.70;;;;;;;32.81;28.86;97220.03;2071546;28;20937;-60
2023/06/24 14:22:52;;;;;;;3.07;2.63;;;;;;;31.74;29.03;97212.53;2070473;28;20473;-60
2023/06/24 14:23:53;;;;;;;5.03;2.97;;;;;;;31.49;29.80;97217.38;2071901;28;20415;-59
2023/06/24 14:24:58;;;;;;;3.80;2.67;;;;;;;31.69;29.94;97214.09;2079142;28;20905;-60
2023/06/24 14:25:59;;;;;;;4.13;2.70;;;;;;;32.35;30.27;97221.28;2078831;28;20429;-60
2023/06/24 14:27:01;;;;;;;5.27;2.43;;;;;;;31.57;30.97;97206.47;2071704;28;20427;-60
2023/06/24 14:28:04;;;;;;;3.20;2.30;;;;;;;32.21;30.17;97215.78;2070942;28;20462;-59
2023/06/24 14:29:05;;;;;;;3.63;2.40;;;;;;;32.67;29.85;97217.22;2071637;28;20431;-60